createdAt,value
2018-06-23T00:01:24.943Z,-50
2018-06-23T00:03:51.875Z,-50
2018-06-23T00:06:18.795Z,-50
2018-06-23T00:08:45.767Z,-49
2018-06-23T00:11:12.750Z,-50
2018-06-23T00:13:39.643Z,-50
2018-06-23T00:16:06.575Z,-50
2018-06-23T00:18:33.507Z,-49
2018-06-23T00:21:00.530Z,-50
2018-06-23T00:23:27.694Z,-50
2018-06-23T00:26:00.245Z,-50
2018-06-23T00:28:27.427Z,-50
2018-06-23T00:30:54.375Z,-50
2018-06-23T00:33:21.294Z,-50
2018-06-23T00:35:48.243Z,-49
2018-06-23T00:38:15.210Z,-50
2018-06-23T00:40:42.135Z,-49
2018-06-23T00:43:09.044Z,-49
2018-06-23T00:45:36.120Z,-50
2018-06-23T00:48:03.047Z,-50
2018-06-23T00:50:30.003Z,-50
2018-06-23T00:52:56.914Z,-50
2018-06-23T00:55:23.839Z,-50
2018-06-23T00:57:50.771Z,-51
2018-06-23T01:00:17.714Z,-50
2018-06-23T01:02:44.632Z,-50
2018-06-23T01:05:11.582Z,-49
2018-06-23T01:07:38.611Z,-50
2018-06-23T01:10:05.740Z,-51
2018-06-23T01:12:32.676Z,-51
2018-06-23T01:14:59.598Z,-50
2018-06-23T01:17:26.891Z,-50
2018-06-23T01:19:53.801Z,-50
2018-06-23T01:22:20.723Z,-50
2018-06-23T01:24:47.631Z,-50
2018-06-23T01:27:14.553Z,-50
2018-06-23T01:29:41.487Z,-50
2018-06-23T01:32:08.558Z,-50
2018-06-23T01:34:35.491Z,-54
2018-06-23T01:37:02.491Z,-53
2018-06-23T01:39:29.404Z,-52
2018-06-23T01:41:56.355Z,-50
2018-06-23T01:44:23.342Z,-50
2018-06-23T01:46:50.279Z,-50
2018-06-23T01:49:17.231Z,-50
2018-06-23T01:51:44.215Z,-50
2018-06-23T01:54:11.115Z,-50
2018-06-23T01:56:38.078Z,-50
2018-06-23T01:59:05.007Z,-49
2018-06-23T02:01:32.092Z,-50
2018-06-23T02:03:59.031Z,-50
2018-06-23T02:06:25.997Z,-50
2018-06-23T02:08:52.910Z,-50
2018-06-23T02:11:20.071Z,-50
2018-06-23T02:13:47.011Z,-50
2018-06-23T02:16:19.706Z,-50
2018-06-23T02:18:52.279Z,-50
2018-06-23T02:21:24.915Z,-50
2018-06-23T02:23:57.527Z,-50
2018-06-23T02:26:30.522Z,-50
2018-06-23T02:29:03.363Z,-50
2018-06-23T02:31:36.226Z,-50
2018-06-23T02:34:09.018Z,-50
2018-06-23T02:36:35.971Z,-50
2018-06-23T02:39:04.958Z,-51
2018-06-23T02:41:31.912Z,-50
2018-06-23T02:44:00.870Z,-51
2018-06-23T02:46:27.975Z,-51
2018-06-23T02:48:54.933Z,-50
2018-06-23T02:51:22.283Z,-52
2018-06-23T02:53:49.231Z,-50
2018-06-23T02:56:16.459Z,-50
2018-06-23T02:58:43.407Z,-50
2018-06-23T03:01:10.339Z,-50
2018-06-23T03:03:37.388Z,-50
2018-06-23T03:06:04.864Z,-50
2018-06-23T03:08:31.786Z,-50
2018-06-23T03:10:58.747Z,-50
2018-06-23T03:13:25.716Z,-50
2018-06-23T03:15:52.711Z,-50
2018-06-23T03:18:19.662Z,-50
2018-06-23T03:20:46.587Z,-50
2018-06-23T03:23:13.563Z,-50
2018-06-23T03:25:40.470Z,-50
2018-06-23T03:28:07.419Z,-50
2018-06-23T03:30:34.401Z,-50
2018-06-23T03:33:01.344Z,-50
2018-06-23T03:35:28.263Z,-50
2018-06-23T03:37:55.224Z,-50
2018-06-23T03:40:22.178Z,-50
2018-06-23T03:42:49.130Z,-49
2018-06-23T03:45:16.180Z,-50
2018-06-23T03:47:43.123Z,-49
2018-06-23T03:50:10.115Z,-49
2018-06-23T03:52:37.134Z,-49
2018-06-23T03:55:04.339Z,-49
2018-06-23T03:57:31.447Z,-50
2018-06-23T03:59:58.382Z,-49
2018-06-23T04:02:25.287Z,-50
2018-06-23T04:04:52.207Z,-52
2018-06-23T04:07:19.135Z,-50
2018-06-23T04:09:46.070Z,-50
2018-06-23T04:12:12.983Z,-50
2018-06-23T04:14:39.922Z,-49
2018-06-23T04:17:07.947Z,-50
2018-06-23T04:19:35.031Z,-50
2018-06-23T04:22:01.931Z,-50
2018-06-23T04:24:28.842Z,-49
2018-06-23T04:26:55.815Z,-49
2018-06-23T04:29:22.788Z,-51
2018-06-23T04:31:49.727Z,-51
2018-06-23T04:34:16.711Z,-50
2018-06-23T04:36:43.651Z,-49
2018-06-23T04:39:10.588Z,-51
2018-06-23T04:41:37.819Z,-49
2018-06-23T04:44:04.935Z,-50
2018-06-23T04:46:31.851Z,-49
2018-06-23T04:48:58.835Z,-50
2018-06-23T04:51:25.771Z,-49
2018-06-23T04:53:52.759Z,-50
2018-06-23T04:56:19.671Z,-49
2018-06-23T04:58:46.627Z,-50
2018-06-23T05:01:13.547Z,-50
2018-06-23T05:03:40.518Z,-50
2018-06-23T05:06:07.468Z,-50
2018-06-23T05:08:35.222Z,-49
2018-06-23T05:11:02.168Z,-50
2018-06-23T05:13:29.233Z,-50
2018-06-23T05:15:56.039Z,-50
2018-06-23T05:18:23.074Z,-50
2018-06-23T05:20:49.979Z,-51
2018-06-23T05:23:16.947Z,-50
2018-06-23T05:25:43.906Z,-49
2018-06-23T05:28:10.867Z,-49
2018-06-23T05:30:37.779Z,-50
2018-06-23T05:33:04.882Z,-50
2018-06-23T05:35:31.871Z,-50
2018-06-23T05:37:58.988Z,-49
2018-06-23T05:40:25.936Z,-49
2018-06-23T05:42:52.883Z,-50
2018-06-23T05:45:19.963Z,-50
2018-06-23T05:47:46.883Z,-50
2018-06-23T05:50:13.935Z,-50
2018-06-23T05:52:40.965Z,-50
2018-06-23T05:55:07.893Z,-49
2018-06-23T05:57:34.855Z,-51
2018-06-23T06:00:01.824Z,-49
2018-06-23T06:02:28.731Z,-52
2018-06-23T06:04:55.670Z,-49
2018-06-23T06:07:22.675Z,-50
2018-06-23T06:09:49.603Z,-50
2018-06-23T06:12:16.522Z,-50
2018-06-23T06:14:43.588Z,-50
2018-06-23T06:17:21.047Z,-49
2018-06-23T06:19:48.307Z,-49
2018-06-23T06:22:15.563Z,-49
2018-06-23T06:24:42.544Z,-49
2018-06-23T06:27:09.473Z,-50
2018-06-23T06:29:37.061Z,-50
2018-06-23T06:32:04.127Z,-49
2018-06-23T06:34:31.753Z,-52
2018-06-23T06:36:58.664Z,-52
2018-06-23T06:39:25.589Z,-50
2018-06-23T06:41:52.542Z,-48
2018-06-23T06:44:19.512Z,-50
2018-06-23T06:46:46.503Z,-50
2018-06-23T06:49:13.536Z,-50
2018-06-23T06:51:40.526Z,-51
2018-06-23T06:54:07.500Z,-50
2018-06-23T06:56:34.476Z,-50
2018-06-23T06:59:01.383Z,-50
2018-06-23T07:01:28.318Z,-51
2018-06-23T07:03:55.227Z,-50
2018-06-23T07:06:22.164Z,-49
2018-06-23T07:08:49.180Z,-50
2018-06-23T07:11:16.120Z,-50
2018-06-23T07:13:43.111Z,-51
2018-06-23T07:16:10.051Z,-51
2018-06-23T07:18:36.970Z,-50
2018-06-23T07:21:03.916Z,-50
2018-06-23T07:23:30.880Z,-51
2018-06-23T07:25:57.896Z,-50
2018-06-23T07:28:24.808Z,-50
2018-06-23T07:30:51.932Z,-51
2018-06-23T07:33:18.853Z,-51
2018-06-23T07:35:46.003Z,-51
2018-06-23T07:38:13.068Z,-51
2018-06-23T07:40:40.101Z,-51
2018-06-23T07:43:07.023Z,-51
2018-06-23T07:45:34.079Z,-51
2018-06-23T07:48:00.998Z,-51
2018-06-23T07:50:28.009Z,-51
2018-06-23T07:52:54.919Z,-51
2018-06-23T07:55:21.987Z,-51
2018-06-23T07:57:48.907Z,-51
2018-06-23T08:00:15.918Z,-50
2018-06-23T08:02:42.860Z,-51
2018-06-23T08:05:09.847Z,-51
2018-06-23T08:07:36.843Z,-52
2018-06-23T08:10:03.775Z,-51
2018-06-23T08:12:30.855Z,-51
2018-06-23T08:14:57.810Z,-50
2018-06-23T08:17:24.718Z,-50
2018-06-23T08:19:51.626Z,-50
2018-06-23T08:22:18.570Z,-50
2018-06-23T08:24:45.542Z,-50
2018-06-23T08:27:12.475Z,-51
2018-06-23T08:29:39.452Z,-51
2018-06-23T08:32:06.398Z,-51
2018-06-23T08:34:33.319Z,-51
2018-06-23T08:37:00.259Z,-51
2018-06-23T08:39:27.211Z,-51
2018-06-23T08:41:54.190Z,-54
2018-06-23T08:44:21.149Z,-51
2018-06-23T08:46:48.131Z,-51
2018-06-23T08:49:15.120Z,-52
2018-06-23T08:51:42.057Z,-51
2018-06-23T08:54:09.003Z,-51
2018-06-23T08:56:36.109Z,-51
2018-06-23T08:59:03.207Z,-51
2018-06-23T09:01:30.179Z,-51
2018-06-23T09:03:57.095Z,-50
2018-06-23T09:06:24.160Z,-52
2018-06-23T09:08:51.124Z,-51
2018-06-23T09:11:18.064Z,-50
2018-06-23T09:13:45.156Z,-51
2018-06-23T09:16:12.122Z,-50
2018-06-23T09:18:39.088Z,-50
2018-06-23T09:21:06.029Z,-50
2018-06-23T09:23:32.938Z,-51
2018-06-23T09:26:00.126Z,-51
2018-06-23T09:28:26.973Z,-51
2018-06-23T09:30:53.983Z,-50
2018-06-23T09:33:20.967Z,-50
2018-06-23T09:35:47.866Z,-50
2018-06-23T09:38:14.936Z,-51
2018-06-23T09:40:43.383Z,-51
2018-06-23T09:43:10.335Z,-51
2018-06-23T09:45:37.277Z,-51
2018-06-23T09:48:04.279Z,-51
2018-06-23T09:50:31.223Z,-52
2018-06-23T09:52:58.163Z,-51
2018-06-23T09:55:25.255Z,-52
2018-06-23T09:57:52.178Z,-51
2018-06-23T10:00:23.791Z,-51
2018-06-23T10:02:50.770Z,-51
2018-06-23T10:05:17.676Z,-52
2018-06-23T10:07:44.634Z,-51
2018-06-23T10:10:11.552Z,-51
2018-06-23T10:12:38.489Z,-51
2018-06-23T10:15:05.555Z,-51
2018-06-23T10:17:32.471Z,-51
2018-06-23T10:19:59.399Z,-51
2018-06-23T10:22:26.359Z,-51
2018-06-23T10:24:53.267Z,-53
2018-06-23T10:27:20.322Z,-53
2018-06-23T10:29:47.323Z,-51
2018-06-23T10:32:14.279Z,-51
2018-06-23T10:34:41.191Z,-51
2018-06-23T10:37:08.122Z,-51
2018-06-23T10:39:35.135Z,-51
2018-06-23T10:42:02.204Z,-51
2018-06-23T10:44:29.142Z,-51
2018-06-23T10:46:56.059Z,-51
2018-06-23T10:49:23.039Z,-51
2018-06-23T10:51:49.954Z,-51
2018-06-23T10:54:16.879Z,-51
2018-06-23T10:56:43.811Z,-51
2018-06-23T10:59:10.755Z,-51
2018-06-23T11:01:37.682Z,-51
2018-06-23T11:04:04.635Z,-51
2018-06-23T11:06:31.607Z,-51
2018-06-23T11:08:59.678Z,-53
2018-06-23T11:11:26.810Z,-51
2018-06-23T11:13:54.374Z,-52
2018-06-23T11:16:21.283Z,-52
2018-06-23T11:18:48.275Z,-51
2018-06-23T11:21:15.269Z,-51
2018-06-23T11:23:42.231Z,-51
2018-06-23T11:26:09.168Z,-51
2018-06-23T11:28:36.129Z,-51
2018-06-23T11:31:03.076Z,-51
2018-06-23T11:33:30.005Z,-51
2018-06-23T11:35:56.919Z,-51
2018-06-23T11:38:23.915Z,-51
2018-06-23T11:40:50.818Z,-51
2018-06-23T11:43:17.822Z,-51
2018-06-23T11:45:44.819Z,-51
2018-06-23T11:48:11.763Z,-51
2018-06-23T11:50:38.731Z,-53
2018-06-23T11:53:05.744Z,-51
2018-06-23T11:55:32.694Z,-52
2018-06-23T11:57:59.803Z,-52
2018-06-23T12:00:26.791Z,-51
2018-06-23T12:02:53.719Z,-52
2018-06-23T12:05:20.932Z,-51
2018-06-23T12:07:47.851Z,-52
2018-06-23T12:10:14.793Z,-51
2018-06-23T12:12:42.216Z,-52
2018-06-23T12:15:09.193Z,-52
2018-06-23T12:17:36.119Z,-51
2018-06-23T12:20:03.292Z,-51
2018-06-23T12:22:30.267Z,-51
2018-06-23T12:24:57.399Z,-51
2018-06-23T12:27:24.379Z,-51
2018-06-23T12:29:51.341Z,-51
2018-06-23T12:32:18.363Z,-51
2018-06-23T12:34:45.290Z,-51
2018-06-23T12:37:12.211Z,-51
2018-06-23T12:39:39.255Z,-52
2018-06-23T12:42:06.183Z,-51
2018-06-23T12:44:33.198Z,-51
2018-06-23T12:47:00.240Z,-51
2018-06-23T12:49:27.163Z,-51
2018-06-23T12:51:54.095Z,-51
2018-06-23T12:54:21.075Z,-51
2018-06-23T12:56:48.021Z,-51
2018-06-23T12:59:15.428Z,-51
2018-06-23T13:01:42.838Z,-51
2018-06-23T13:04:09.914Z,-51
2018-06-23T13:06:36.899Z,-51
2018-06-23T13:09:06.979Z,-51
2018-06-23T13:11:33.896Z,-51
2018-06-23T13:14:00.831Z,-52
2018-06-23T13:16:27.879Z,-51
2018-06-23T13:18:54.823Z,-51
2018-06-23T13:21:21.807Z,-51
2018-06-23T13:23:49.023Z,-52
2018-06-23T13:26:16.006Z,-51
2018-06-23T13:28:42.957Z,-51
2018-06-23T13:31:09.892Z,-51
2018-06-23T13:33:36.843Z,-51
2018-06-23T13:36:03.871Z,-51
2018-06-23T13:38:30.802Z,-51
2018-06-23T13:41:01.099Z,-51
2018-06-23T13:43:28.040Z,-51
2018-06-23T13:45:54.979Z,-52
2018-06-23T13:48:21.912Z,-52
2018-06-23T13:50:48.887Z,-51
2018-06-23T13:53:15.852Z,-51
2018-06-23T13:55:42.799Z,-51
2018-06-23T13:58:09.726Z,-51
2018-06-23T14:00:36.679Z,-52
2018-06-23T14:03:03.606Z,-52
2018-06-23T14:05:30.531Z,-53
2018-06-23T14:07:57.517Z,-51
2018-06-23T14:10:24.462Z,-51
2018-06-23T14:12:51.380Z,-52
2018-06-23T14:15:18.379Z,-51
2018-06-23T14:17:45.299Z,-51
2018-06-23T14:20:12.315Z,-51
2018-06-23T14:22:39.252Z,-51
2018-06-23T14:25:07.247Z,-51
2018-06-23T14:27:34.227Z,-52
2018-06-23T14:30:01.151Z,-51
2018-06-23T14:32:28.281Z,-52
2018-06-23T14:34:55.187Z,-51
2018-06-23T14:37:22.126Z,-51
2018-06-23T14:39:49.150Z,-51
2018-06-23T14:42:16.454Z,-52
2018-06-23T14:44:43.399Z,-53
2018-06-23T14:47:10.322Z,-54
2018-06-23T14:49:37.267Z,-50
2018-06-23T14:52:04.195Z,-50
2018-06-23T14:54:31.175Z,-50
2018-06-23T14:56:58.306Z,-51
2018-06-23T14:59:25.481Z,-51
2018-06-23T15:01:52.679Z,-52
2018-06-23T15:04:19.611Z,-51
2018-06-23T15:06:46.591Z,-50
2018-06-23T15:09:25.127Z,-50
2018-06-23T15:12:03.604Z,-50
2018-06-23T15:14:30.517Z,-49
2018-06-23T15:16:57.435Z,-50
2018-06-23T15:19:24.398Z,-47
2018-06-23T15:21:51.379Z,-51
2018-06-23T15:24:18.323Z,-48
2018-06-23T15:26:46.148Z,-50
2018-06-23T15:29:13.103Z,-50
2018-06-23T15:31:40.331Z,-50
2018-06-23T15:34:07.422Z,-50
2018-06-23T15:36:34.345Z,-50
2018-06-23T15:39:01.255Z,-50
2018-06-23T15:41:28.199Z,-50
2018-06-23T15:43:55.143Z,-50
2018-06-23T15:46:22.267Z,-50
2018-06-23T15:48:49.192Z,-50
2018-06-23T15:51:16.283Z,-50
2018-06-23T15:53:43.264Z,-51
2018-06-23T15:56:10.247Z,-51
2018-06-23T15:58:37.175Z,-50
2018-06-23T16:01:04.873Z,-50
2018-06-23T16:03:31.892Z,-50
2018-06-23T16:05:58.856Z,-50
2018-06-23T16:08:25.799Z,-50
2018-06-23T16:10:53.059Z,-51
2018-06-23T16:13:20.006Z,-49
2018-06-23T16:15:46.971Z,-49
2018-06-23T16:18:14.099Z,-49
2018-06-23T16:20:41.184Z,-49
2018-06-23T16:23:08.200Z,-48
2018-06-23T16:25:35.938Z,-49
2018-06-23T16:28:02.895Z,-49
2018-06-23T16:30:29.824Z,-49
2018-06-23T16:32:56.755Z,-49
2018-06-23T16:35:23.950Z,-49
2018-06-23T16:37:50.651Z,-47
2018-06-23T16:40:17.559Z,-49
2018-06-23T16:42:44.507Z,-50
2018-06-23T16:45:11.438Z,-48
2018-06-23T16:47:38.385Z,-48
2018-06-23T16:50:05.325Z,-48
2018-06-23T16:52:32.315Z,-49
2018-06-23T16:54:59.210Z,-48
2018-06-23T16:57:26.139Z,-48
2018-06-23T16:59:53.343Z,-49
2018-06-23T17:02:20.354Z,-47
2018-06-23T17:04:47.274Z,-48
2018-06-23T17:07:14.411Z,-47
2018-06-23T17:09:41.327Z,-48
2018-06-23T17:12:08.267Z,-47
2018-06-23T17:14:35.248Z,-47
2018-06-23T17:17:02.244Z,-47
2018-06-23T17:19:29.213Z,-47
2018-06-23T17:21:56.298Z,-47
2018-06-23T17:24:23.206Z,-47
2018-06-23T17:26:50.339Z,-47
2018-06-23T17:29:17.306Z,-47
2018-06-23T17:31:44.247Z,-47
2018-06-23T17:34:11.191Z,-48
2018-06-23T17:36:38.151Z,-47
2018-06-23T17:39:06.576Z,-47
2018-06-23T17:41:33.499Z,-48
2018-06-23T17:44:00.440Z,-47
2018-06-23T17:46:27.602Z,-47
2018-06-23T17:48:54.947Z,-48
2018-06-23T17:51:21.879Z,-47
2018-06-23T17:53:48.811Z,-47
2018-06-23T17:56:15.727Z,-47
2018-06-23T17:58:42.707Z,-47
2018-06-23T18:01:09.639Z,-47
2018-06-23T18:03:36.609Z,-47
2018-06-23T18:06:03.555Z,-48
2018-06-23T18:08:30.495Z,-48
2018-06-23T18:10:57.418Z,-48
2018-06-23T18:13:24.390Z,-48
2018-06-23T18:15:51.320Z,-49
2018-06-23T18:18:18.479Z,-48
2018-06-23T18:20:45.451Z,-48
2018-06-23T18:23:12.406Z,-48
2018-06-23T18:25:39.503Z,-48
2018-06-23T18:28:06.432Z,-48
2018-06-23T18:30:33.355Z,-48
2018-06-23T18:33:00.295Z,-48
2018-06-23T18:35:27.480Z,-48
2018-06-23T18:37:54.678Z,-48
2018-06-23T18:40:21.597Z,-48
2018-06-23T18:42:48.527Z,-48
2018-06-23T18:45:15.451Z,-48
2018-06-23T18:47:42.387Z,-48
2018-06-23T18:50:09.307Z,-48
2018-06-23T18:52:36.231Z,-48
2018-06-23T18:55:03.319Z,-48
2018-06-23T18:57:30.243Z,-48
2018-06-23T18:59:57.291Z,-48
2018-06-23T19:02:24.207Z,-48
2018-06-23T19:04:51.139Z,-48
2018-06-23T19:07:18.251Z,-48
2018-06-23T19:09:45.193Z,-48
2018-06-23T19:12:12.131Z,-48
2018-06-23T19:14:39.064Z,-50
2018-06-23T19:17:06.323Z,-49
2018-06-23T19:19:33.302Z,-48
2018-06-23T19:22:00.234Z,-48
2018-06-23T19:24:27.166Z,-48
2018-06-23T19:26:54.091Z,-48
2018-06-23T19:29:21.027Z,-49
2018-06-23T19:31:47.954Z,-48
2018-06-23T19:34:14.890Z,-48
2018-06-23T19:36:41.807Z,-48
2018-06-23T19:39:09.635Z,-48
2018-06-23T19:41:36.638Z,-48
2018-06-23T19:44:03.671Z,-48
2018-06-23T19:46:30.551Z,-48
2018-06-23T19:48:57.533Z,-48
2018-06-23T19:51:24.443Z,-48
2018-06-23T19:53:51.651Z,-47
2018-06-23T19:56:18.539Z,-47
2018-06-23T19:58:45.536Z,-48
2018-06-23T20:01:12.462Z,-47
2018-06-23T20:03:39.413Z,-48
2018-06-23T20:06:06.755Z,-48
2018-06-23T20:08:33.763Z,-48
2018-06-23T20:11:00.723Z,-48
2018-06-23T20:13:28.029Z,-48
2018-06-23T20:15:55.140Z,-47
2018-06-23T20:18:22.271Z,-48
2018-06-23T20:20:49.248Z,-48
2018-06-23T20:23:17.167Z,-48
2018-06-23T20:25:44.498Z,-48
2018-06-23T20:28:11.429Z,-48
2018-06-23T20:30:38.438Z,-47
2018-06-23T20:33:05.475Z,-47
2018-06-23T20:35:32.429Z,-47
2018-06-23T20:37:59.351Z,-48
2018-06-23T20:40:26.267Z,-48
2018-06-23T20:42:53.258Z,-47
2018-06-23T20:45:20.275Z,-48
2018-06-23T20:47:47.187Z,-48
2018-06-23T20:50:14.849Z,-48
2018-06-23T20:52:41.788Z,-49
2018-06-23T20:55:08.747Z,-48
2018-06-23T20:57:35.745Z,-48
2018-06-23T21:00:02.845Z,-48
2018-06-23T21:02:29.834Z,-49
2018-06-23T21:04:56.795Z,-48
2018-06-23T21:07:23.773Z,-48
2018-06-23T21:09:51.015Z,-47
2018-06-23T21:12:17.926Z,-49
2018-06-23T21:14:44.847Z,-48
2018-06-23T21:17:11.903Z,-47
2018-06-23T21:19:38.815Z,-48
2018-06-23T21:22:05.811Z,-48
2018-06-23T21:24:32.744Z,-48
2018-06-23T21:27:00.789Z,-48
2018-06-23T21:29:27.870Z,-48
2018-06-23T21:31:54.822Z,-48
2018-06-23T21:34:21.812Z,-48
2018-06-23T21:36:48.743Z,-48
2018-06-23T21:39:15.731Z,-48
2018-06-23T21:41:42.699Z,-48
2018-06-23T21:44:09.624Z,-47
2018-06-23T21:46:36.603Z,-48
2018-06-23T21:49:03.576Z,-48
2018-06-23T21:51:30.730Z,-48
2018-06-23T21:53:57.663Z,-48
2018-06-23T21:56:24.675Z,-47
2018-06-23T21:58:51.831Z,-48
2018-06-23T22:01:18.854Z,-48
2018-06-23T22:03:45.891Z,-48
2018-06-23T22:06:13.423Z,-48
2018-06-23T22:08:40.340Z,-47
2018-06-23T22:11:07.439Z,-48
2018-06-23T22:13:34.383Z,-48
2018-06-23T22:16:01.335Z,-48
2018-06-23T22:18:28.341Z,-48
2018-06-23T22:20:55.339Z,-48
2018-06-23T22:23:22.263Z,-47
2018-06-23T22:25:49.231Z,-48
2018-06-23T22:28:16.143Z,-48
2018-06-23T22:30:43.149Z,-47
2018-06-23T22:33:10.107Z,-48
2018-06-23T22:35:37.071Z,-48
2018-06-23T22:38:04.153Z,-48
2018-06-23T22:40:31.060Z,-48
2018-06-23T22:42:58.035Z,-48
2018-06-23T22:45:25.268Z,-48
2018-06-23T22:47:52.196Z,-48
2018-06-23T22:50:19.145Z,-48
2018-06-23T22:52:46.307Z,-47
2018-06-23T22:55:13.264Z,-48
2018-06-23T22:57:40.549Z,-47
2018-06-23T23:00:08.479Z,-48
2018-06-23T23:02:35.561Z,-49
2018-06-23T23:05:02.537Z,-48
2018-06-23T23:07:29.475Z,-48
2018-06-23T23:09:56.403Z,-48
2018-06-23T23:12:23.375Z,-49
2018-06-23T23:14:50.317Z,-48
2018-06-23T23:17:17.270Z,-49
2018-06-23T23:19:44.215Z,-48
2018-06-23T23:22:11.231Z,-50
2018-06-23T23:24:38.150Z,-49
2018-06-23T23:27:05.087Z,-48
2018-06-23T23:29:31.999Z,-48
2018-06-23T23:31:59.079Z,-47
2018-06-23T23:34:26.037Z,-48
2018-06-23T23:36:53.019Z,-48
2018-06-23T23:39:20.055Z,-47
2018-06-23T23:41:47.007Z,-48
2018-06-23T23:44:14.017Z,-48
2018-06-23T23:46:41.031Z,-48
2018-06-23T23:49:08.090Z,-49
2018-06-23T23:51:35.003Z,-50
2018-06-23T23:54:02.083Z,-49
2018-06-23T23:56:29.020Z,-49
2018-06-23T23:58:56.024Z,-47
